SARE/RES METAR and TAF weather

Enter ICAO airport designator
Station Type Date Time Source
SARE METAR 2020/02/19 14:00 UTC NOAA

SARE 191400Z 09006KT 050V140 CAVOK 26/16 Q1012


Station Type Date Time Source
SARE Decoded METAR 2020/02/19 14:00 UTC NOAA

Resistencia Aero., Argentina (SARE) 27-27S 059-03W 52M
Feb 19, 2020 - 09:00 AM EST / 2020.02.19 1400 UTC
Wind: from the E (090 degrees) at 7 MPH (6 KT) (direction variable):0
Visibility: greater than 7 mile(s):0
Temperature: 78 F (26 C)
Dew Point: 60 F (16 C)
Relative Humidity: 54%
Pressure (altimeter): 29.88 in. Hg (1012 hPa)
ob: SARE 191400Z 09006KT 050V140 CAVOK 26/16 Q1012
cycle: 14

Station Type Date Time Source
SARE TAF 2020/02/19 12:35 UTC NOAA

TAF SARE 191100Z 1912/2012 14005KT CAVOK TX30/1918Z TN18/2009Z
BECMG 1914/1916 9999 SCT040 PROB30 1917/1921 BKN030 FEW050TCU

Example: see airport list